sensor_id;sensor_type;location;lat;lon;timestamp;pressure;altitude;pressure_sealevel;temperature;humidity
22550;BME280;11441;57.164;-2.120;2022-09-09T00:00:18;100384.44;;;15.03;100.00
22550;BME280;11441;57.164;-2.120;2022-09-09T00:05:44;100385.25;;;15.07;100.00
22550;BME280;11441;57.164;-2.120;2022-09-09T00:09:31;100382.88;;;15.13;100.00
22550;BME280;11441;57.164;-2.120;2022-09-09T00:11:40;100387.22;;;15.03;100.00
22550;BME280;11441;57.164;-2.120;2022-09-09T00:14:39;100378.13;;;15.09;100.00
22550;BME280;11441;57.164;-2.120;2022-09-09T00:17:10;100390.81;;;15.07;100.00
22550;BME280;11441;57.164;-2.120;2022-09-09T00:19:53;100388.03;;;15.07;100.00
22550;BME280;11441;57.164;-2.120;2022-09-09T00:22:25;100390.00;;;15.03;100.00
22550;BME280;11441;57.164;-2.120;2022-09-09T00:24:55;100393.19;;;15.12;100.00
22550;BME280;11441;57.164;-2.120;2022-09-09T00:27:31;100378.94;;;15.10;100.00
22550;BME280;11441;57.164;-2.120;2022-09-09T00:32:43;100390.41;;;15.01;100.00
22550;BME280;11441;57.164;-2.120;2022-09-09T00:35:44;100382.84;;;14.95;100.00
22550;BME280;11441;57.164;-2.120;2022-09-09T00:38:37;100399.50;;;14.95;100.00
22550;BME280;11441;57.164;-2.120;2022-09-09T00:41:22;100395.56;;;15.10;100.00
22550;BME280;11441;57.164;-2.120;2022-09-09T00:44:30;100395.56;;;15.14;100.00
22550;BME280;11441;57.164;-2.120;2022-09-09T00:52:30;100391.56;;;14.89;100.00
22550;BME280;11441;57.164;-2.120;2022-09-09T00:56:25;100393.56;;;14.96;100.00
22550;BME280;11441;57.164;-2.120;2022-09-09T00:58:18;100384.00;;;14.86;100.00
22550;BME280;11441;57.164;-2.120;2022-09-09T01:01:07;100380.47;;;14.93;100.00
22550;BME280;11441;57.164;-2.120;2022-09-09T01:03:50;100386.03;;;14.93;100.00
22550;BME280;11441;57.164;-2.120;2022-09-09T01:06:37;100386.03;;;14.97;100.00
22550;BME280;11441;57.164;-2.120;2022-09-09T01:09:32;100389.97;;;14.99;100.00
22550;BME280;11441;57.164;-2.120;2022-09-09T01:15:04;100390.34;;;14.90;100.00
22550;BME280;11441;57.164;-2.120;2022-09-09T01:20:20;100389.16;;;14.88;100.00
22550;BME280;11441;57.164;-2.120;2022-09-09T01:28:22;100393.50;;;14.78;100.00
22550;BME280;11441;57.164;-2.120;2022-09-09T01:30:56;100385.56;;;14.80;100.00
22550;BME280;11441;57.164;-2.120;2022-09-09T01:33:27;100399.88;;;14.89;100.00
22550;BME280;11441;57.164;-2.120;2022-09-09T01:36:02;100402.66;;;14.97;100.00
22550;BME280;11441;57.164;-2.120;2022-09-09T01:38:37;100399.88;;;14.89;100.00
22550;BME280;11441;57.164;-2.120;2022-09-09T01:41:04;100392.34;;;14.86;100.00
22550;BME280;11441;57.164;-2.120;2022-09-09T01:43:54;100393.94;;;14.84;100.00
22550;BME280;11441;57.164;-2.120;2022-09-09T01:46:22;100399.47;;;14.87;100.00
22550;BME280;11441;57.164;-2.120;2022-09-09T01:48:51;100396.72;;;14.87;100.00
22550;BME280;11441;57.164;-2.120;2022-09-09T01:51:19;100392.38;;;15.08;100.00
22550;BME280;11441;57.164;-2.120;2022-09-09T01:54:06;100397.50;;;14.99;100.00
22550;BME280;11441;57.164;-2.120;2022-09-09T02:08:06;100398.28;;;14.85;100.00
22550;BME280;11441;57.164;-2.120;2022-09-09T02:11:01;100401.06;;;14.92;100.00
22550;BME280;11441;57.164;-2.120;2022-09-09T02:13:39;100399.44;;;14.80;100.00
22550;BME280;11441;57.164;-2.120;2022-09-09T02:16:21;100401.78;;;14.75;100.00
22550;BME280;11441;57.164;-2.120;2022-09-09T02:21:59;100410.53;;;14.80;100.00
22550;BME280;11441;57.164;-2.120;2022-09-09T02:24:31;100414.13;;;14.84;100.00
22550;BME280;11441;57.164;-2.120;2022-09-09T02:27:12;100414.47;;;14.72;100.00
22550;BME280;11441;57.164;-2.120;2022-09-09T02:29:43;100418.03;;;14.73;100.00
22550;BME280;11441;57.164;-2.120;2022-09-09T02:32:18;100430.66;;;14.63;100.00
22550;BME280;11441;57.164;-2.120;2022-09-09T02:34:59;100434.25;;;14.67;100.00
22550;BME280;11441;57.164;-2.120;2022-09-09T02:37:31;100417.69;;;14.85;100.00
22550;BME280;11441;57.164;-2.120;2022-09-09T02:40:18;100428.75;;;14.81;100.00
22550;BME280;11441;57.164;-2.120;2022-09-09T02:42:50;100427.97;;;14.77;100.00
22550;BME280;11441;57.164;-2.120;2022-09-09T02:45:45;100435.09;;;14.85;100.00
22550;BME280;11441;57.164;-2.120;2022-09-09T02:49:09;100435.47;;;14.80;100.00
22550;BME280;11441;57.164;-2.120;2022-09-09T02:51:17;100450.94;;;14.88;100.00
22550;BME280;11441;57.164;-2.120;2022-09-09T02:54:04;100437.88;;;14.89;100.00
22550;BME280;11441;57.164;-2.120;2022-09-09T02:56:40;100445.38;;;14.81;100.00
22550;BME280;11441;57.164;-2.120;2022-09-09T02:59:09;100439.44;;;14.83;100.00
22550;BME280;11441;57.164;-2.120;2022-09-09T03:01:39;100447.75;;;14.76;100.00
22550;BME280;11441;57.164;-2.120;2022-09-09T03:04:09;100435.44;;;14.73;100.00
22550;BME280;11441;57.164;-2.120;2022-09-09T03:06:56;100441.41;;;14.75;100.00
22550;BME280;11441;57.164;-2.120;2022-09-09T03:12:28;100442.97;;;14.73;100.00
22550;BME280;11441;57.164;-2.120;2022-09-09T03:14:55;100429.13;;;14.73;100.00
22550;BME280;11441;57.164;-2.120;2022-09-09T03:17:23;100427.94;;;14.70;100.00
22550;BME280;11441;57.164;-2.120;2022-09-09T03:19:53;100432.66;;;14.66;100.00
22550;BME280;11441;57.164;-2.120;2022-09-09T03:22:22;100439.78;;;14.63;100.00
22550;BME280;11441;57.164;-2.120;2022-09-09T03:24:48;100443.34;;;14.67;100.00
22550;BME280;11441;57.164;-2.120;2022-09-09T03:27:16;100442.97;;;14.73;100.00
22550;BME280;11441;57.164;-2.120;2022-09-09T03:29:44;100440.16;;;14.62;100.00
22550;BME280;11441;57.164;-2.120;2022-09-09T03:32:17;100440.56;;;14.67;100.00
22550;BME280;11441;57.164;-2.120;2022-09-09T03:34:44;100446.50;;;14.66;100.00
22550;BME280;11441;57.164;-2.120;2022-09-09T03:37:13;100447.72;;;14.65;100.00
22550;BME280;11441;57.164;-2.120;2022-09-09T03:39:40;100461.59;;;14.72;100.00
22550;BME280;11441;57.164;-2.120;2022-09-09T03:42:27;100458.84;;;14.79;100.00
22550;BME280;11441;57.164;-2.120;2022-09-09T03:44:57;100463.97;;;14.70;100.00
22550;BME280;11441;57.164;-2.120;2022-09-09T03:47:27;100461.59;;;14.76;100.00
22550;BME280;11441;57.164;-2.120;2022-09-09T03:50:02;100456.44;;;14.70;100.00
22550;BME280;11441;57.164;-2.120;2022-09-09T03:52:31;100454.00;;;14.58;100.00
22550;BME280;11441;57.164;-2.120;2022-09-09T03:54:58;100460.38;;;14.69;100.00
22550;BME280;11441;57.164;-2.120;2022-09-09T03:57:25;100461.59;;;14.72;100.00
22550;BME280;11441;57.164;-2.120;2022-09-09T03:59:52;100456.03;;;14.68;100.00
22550;BME280;11441;57.164;-2.120;2022-09-09T04:02:19;100466.72;;;14.66;100.00
22550;BME280;11441;57.164;-2.120;2022-09-09T04:05:06;100460.34;;;14.62;100.00
22550;BME280;11441;57.164;-2.120;2022-09-09T04:07:33;100457.22;;;14.75;100.00
22550;BME280;11441;57.164;-2.120;2022-09-09T04:10:00;100457.22;;;14.75;100.00
22550;BME280;11441;57.164;-2.120;2022-09-09T04:12:28;100455.22;;;14.68;100.00
22550;BME280;11441;57.164;-2.120;2022-09-09T04:14:56;100458.03;;;14.75;100.00
22550;BME280;11441;57.164;-2.120;2022-09-09T04:17:23;100457.19;;;14.67;100.00
22550;BME280;11441;57.164;-2.120;2022-09-09T04:20:08;100457.22;;;14.71;100.00
22550;BME280;11441;57.164;-2.120;2022-09-09T04:22:57;100462.72;;;14.64;100.00
22550;BME280;11441;57.164;-2.120;2022-09-09T04:25:24;100446.78;;;14.46;100.00
22550;BME280;11441;57.164;-2.120;2022-09-09T04:27:55;100460.69;;;14.57;100.00
22550;BME280;11441;57.164;-2.120;2022-09-09T04:30:22;100445.53;;;14.40;100.00
22550;BME280;11441;57.164;-2.120;2022-09-09T04:32:49;100455.13;;;14.53;100.00
22550;BME280;11441;57.164;-2.120;2022-09-09T04:35:17;100451.53;;;14.46;100.00
22550;BME280;11441;57.164;-2.120;2022-09-09T04:37:44;100463.34;;;14.36;100.00
22550;BME280;11441;57.164;-2.120;2022-09-09T04:40:30;100462.16;;;14.40;100.00
22550;BME280;11441;57.164;-2.120;2022-09-09T04:42:58;100467.66;;;14.33;100.00
22550;BME280;11441;57.164;-2.120;2022-09-09T04:45:26;100460.22;;;14.44;100.00
22550;BME280;11441;57.164;-2.120;2022-09-09T04:47:54;100453.84;;;14.40;100.00
22550;BME280;11441;57.164;-2.120;2022-09-09T04:50:21;100460.25;;;14.48;100.00
22550;BME280;11441;57.164;-2.120;2022-09-09T04:53:09;100463.41;;;14.50;100.00
22550;BME280;11441;57.164;-2.120;2022-09-09T04:55:37;100460.97;;;14.34;100.00
22550;BME280;11441;57.164;-2.120;2022-09-09T04:58:06;100458.25;;;14.45;100.00
22550;BME280;11441;57.164;-2.120;2022-09-09T05:00:35;100467.78;;;14.47;100.00
22550;BME280;11441;57.164;-2.120;2022-09-09T05:03:05;100464.59;;;14.49;100.00
22550;BME280;11441;57.164;-2.120;2022-09-09T05:05:33;100461.41;;;14.47;100.00
22550;BME280;11441;57.164;-2.120;2022-09-09T05:08:04;100468.16;;;14.46;100.00
22550;BME280;11441;57.164;-2.120;2022-09-09T05:10:32;100474.13;;;14.51;100.00
22550;BME280;11441;57.164;-2.120;2022-09-09T05:13:00;100472.19;;;14.59;100.00
22550;BME280;11441;57.164;-2.120;2022-09-09T05:15:29;100473.75;;;14.57;100.00
22550;BME280;11441;57.164;-2.120;2022-09-09T05:18:00;100471.81;;;14.61;100.00
22550;BME280;11441;57.164;-2.120;2022-09-09T05:20:29;100465.44;;;14.57;100.00
22550;BME280;11441;57.164;-2.120;2022-09-09T05:22:56;100467.50;;;14.63;100.00
22550;BME280;11441;57.164;-2.120;2022-09-09T05:25:28;100469.00;;;14.57;100.00
22550;BME280;11441;57.164;-2.120;2022-09-09T05:27:55;100463.81;;;14.48;100.00
22550;BME280;11441;57.164;-2.120;2022-09-09T05:30:22;100478.94;;;14.58;100.00
22550;BME280;11441;57.164;-2.120;2022-09-09T05:32:50;100479.25;;;14.49;100.00
22550;BME280;11441;57.164;-2.120;2022-09-09T05:35:18;100482.44;;;14.55;100.00
22550;BME280;11441;57.164;-2.120;2022-09-09T05:37:45;100483.22;;;14.52;100.00
22550;BME280;11441;57.164;-2.120;2022-09-09T05:40:13;100491.50;;;14.48;100.00
22550;BME280;11441;57.164;-2.120;2022-09-09T05:42:41;100496.72;;;14.57;100.00
22550;BME280;11441;57.164;-2.120;2022-09-09T05:45:09;100498.28;;;14.51;100.00
22550;BME280;11441;57.164;-2.120;2022-09-09T05:47:54;100503.91;;;14.65;100.00
22550;BME280;11441;57.164;-2.120;2022-09-09T05:50:40;100504.31;;;14.64;100.00
22550;BME280;11441;57.164;-2.120;2022-09-09T05:53:08;100476.53;;;14.57;100.00
22550;BME280;11441;57.164;-2.120;2022-09-09T05:55:35;100499.19;;;14.73;100.00
22550;BME280;11441;57.164;-2.120;2022-09-09T05:58:03;100498.75;;;14.64;100.00
22550;BME280;11441;57.164;-2.120;2022-09-09T06:00:31;100504.25;;;14.57;100.00
22550;BME280;11441;57.164;-2.120;2022-09-09T06:02:59;100513.31;;;14.53;100.00
22550;BME280;11441;57.164;-2.120;2022-09-09T06:05:26;100504.59;;;14.48;100.00
22550;BME280;11441;57.164;-2.120;2022-09-09T06:07:54;100512.56;;;14.57;100.00
22550;BME280;11441;57.164;-2.120;2022-09-09T06:10:22;100504.97;;;14.50;100.00
22550;BME280;11441;57.164;-2.120;2022-09-09T06:12:52;100520.13;;;14.60;100.00
22550;BME280;11441;57.164;-2.120;2022-09-09T06:15:20;100514.13;;;14.58;100.00
22550;BME280;11441;57.164;-2.120;2022-09-09T06:17:54;100511.31;;;14.50;100.00
22550;BME280;11441;57.164;-2.120;2022-09-09T06:20:21;100535.09;;;14.51;100.00
22550;BME280;11441;57.164;-2.120;2022-09-09T06:22:49;100531.59;;;14.58;100.00
22550;BME280;11441;57.164;-2.120;2022-09-09T06:25:15;100526.75;;;14.48;100.00
22550;BME280;11441;57.164;-2.120;2022-09-09T06:27:43;100531.53;;;14.55;100.00
22550;BME280;11441;57.164;-2.120;2022-09-09T06:30:14;100525.97;;;14.51;100.00
22550;BME280;11441;57.164;-2.120;2022-09-09T06:32:59;100540.22;;;14.49;100.00
22550;BME280;11441;57.164;-2.120;2022-09-09T06:35:26;100546.25;;;14.59;100.00
22550;BME280;11441;57.164;-2.120;2022-09-09T06:37:53;100562.44;;;14.57;100.00
22550;BME280;11441;57.164;-2.120;2022-09-09T06:40:20;100548.16;;;14.55;100.00
22550;BME280;11441;57.164;-2.120;2022-09-09T06:42:47;100544.75;;;14.76;100.00
22550;BME280;11441;57.164;-2.120;2022-09-09T06:45:31;100558.59;;;14.68;100.00
22550;BME280;11441;57.164;-2.120;2022-09-09T06:47:58;100557.00;;;14.71;100.00
22550;BME280;11441;57.164;-2.120;2022-09-09T06:50:25;100557.03;;;14.78;100.00
22550;BME280;11441;57.164;-2.120;2022-09-09T06:52:53;100565.69;;;14.66;100.00
22550;BME280;11441;57.164;-2.120;2022-09-09T06:55:20;100581.22;;;14.81;100.00
22550;BME280;11441;57.164;-2.120;2022-09-09T06:57:47;100582.00;;;14.82;100.00
22550;BME280;11441;57.164;-2.120;2022-09-09T07:00:20;100582.50;;;14.98;100.00
22550;BME280;11441;57.164;-2.120;2022-09-09T07:03:05;100591.59;;;14.92;100.00
22550;BME280;11441;57.164;-2.120;2022-09-09T07:05:55;100587.66;;;14.93;100.00
22550;BME280;11441;57.164;-2.120;2022-09-09T07:08:24;100597.13;;;14.88;100.00
22550;BME280;11441;57.164;-2.120;2022-09-09T07:10:54;100600.66;;;14.85;100.00
22550;BME280;11441;57.164;-2.120;2022-09-09T07:13:25;100604.66;;;14.91;100.00
22550;BME280;11441;57.164;-2.120;2022-09-09T07:15:53;100603.88;;;14.98;100.00
22550;BME280;11441;57.164;-2.120;2022-09-09T07:18:20;100610.22;;;14.95;100.00
22550;BME280;11441;57.164;-2.120;2022-09-09T07:20:54;100611.31;;;14.79;100.00
22550;BME280;11441;57.164;-2.120;2022-09-09T07:23:25;100605.31;;;14.70;100.00
22550;BME280;11441;57.164;-2.120;2022-09-09T07:25:52;100618.50;;;14.87;100.00
22550;BME280;11441;57.164;-2.120;2022-09-09T07:28:20;100627.25;;;14.93;100.00
22550;BME280;11441;57.164;-2.120;2022-09-09T07:30:56;100614.81;;;14.73;100.00
22550;BME280;11441;57.164;-2.120;2022-09-09T07:33:25;100623.22;;;14.83;100.00
22550;BME280;11441;57.164;-2.120;2022-09-09T07:35:53;100626.06;;;14.94;100.00
22550;BME280;11441;57.164;-2.120;2022-09-09T07:38:20;100648.25;;;14.98;100.00
22550;BME280;11441;57.164;-2.120;2022-09-09T07:40:47;100658.22;;;15.06;100.00
22550;BME280;11441;57.164;-2.120;2022-09-09T07:43:15;100652.66;;;15.02;100.00
22550;BME280;11441;57.164;-2.120;2022-09-09T07:45:44;100651.47;;;15.00;100.00
22550;BME280;11441;57.164;-2.120;2022-09-09T07:48:11;100667.06;;;15.22;100.00
22550;BME280;11441;57.164;-2.120;2022-09-09T07:51:11;100659.91;;;15.21;100.00
22550;BME280;11441;57.164;-2.120;2022-09-09T07:53:39;100670.59;;;15.19;100.00
22550;BME280;11441;57.164;-2.120;2022-09-09T07:56:09;100672.97;;;15.17;100.00
22550;BME280;11441;57.164;-2.120;2022-09-09T07:58:38;100676.94;;;15.20;100.00
22550;BME280;11441;57.164;-2.120;2022-09-09T08:01:10;100675.34;;;15.15;100.00
22550;BME280;11441;57.164;-2.120;2022-09-09T08:03:38;100676.13;;;15.19;100.00
22550;BME280;11441;57.164;-2.120;2022-09-09T08:06:07;100681.38;;;15.35;100.00
22550;BME280;11441;57.164;-2.120;2022-09-09T08:08:36;100680.63;;;15.42;100.00
22550;BME280;11441;57.164;-2.120;2022-09-09T08:11:09;100681.38;;;15.32;100.00
22550;BME280;11441;57.164;-2.120;2022-09-09T08:13:37;100693.72;;;15.45;100.00
22550;BME280;11441;57.164;-2.120;2022-09-09T08:16:08;100702.84;;;15.45;100.00
22550;BME280;11441;57.164;-2.120;2022-09-09T08:18:35;100692.88;;;15.34;100.00
22550;BME280;11441;57.164;-2.120;2022-09-09T08:21:13;100694.09;;;15.40;100.00
22550;BME280;11441;57.164;-2.120;2022-09-09T08:23:41;100694.84;;;15.33;100.00
22550;BME280;11441;57.164;-2.120;2022-09-09T08:26:36;100697.25;;;15.35;100.00
22550;BME280;11441;57.164;-2.120;2022-09-09T08:29:06;100706.56;;;15.05;100.00
22550;BME280;11441;57.164;-2.120;2022-09-09T08:31:37;100703.16;;;15.30;100.00
22550;BME280;11441;57.164;-2.120;2022-09-09T08:34:24;100710.28;;;15.31;100.00
22550;BME280;11441;57.164;-2.120;2022-09-09T08:36:55;100713.53;;;15.43;100.00
22550;BME280;11441;57.164;-2.120;2022-09-09T08:39:28;100711.09;;;15.31;100.00
22550;BME280;11441;57.164;-2.120;2022-09-09T08:42:22;100712.34;;;15.48;100.00
22550;BME280;11441;57.164;-2.120;2022-09-09T08:55:54;100738.13;;;15.45;100.00
22550;BME280;11441;57.164;-2.120;2022-09-09T08:58:59;100740.91;;;15.45;100.00
22550;BME280;11441;57.164;-2.120;2022-09-09T09:05:07;100752.91;;;15.63;100.00
22550;BME280;11441;57.164;-2.120;2022-09-09T09:13:17;100768.00;;;15.70;100.00
22550;BME280;11441;57.164;-2.120;2022-09-09T09:15:50;100782.75;;;15.77;100.00
22550;BME280;11441;57.164;-2.120;2022-09-09T09:18:20;100781.50;;;15.68;100.00
22550;BME280;11441;57.164;-2.120;2022-09-09T09:20:49;100781.84;;;15.62;100.00
22550;BME280;11441;57.164;-2.120;2022-09-09T09:23:25;100791.31;;;15.54;100.00
22550;BME280;11441;57.164;-2.120;2022-09-09T09:26:00;100793.28;;;15.50;100.00
22550;BME280;11441;57.164;-2.120;2022-09-09T09:28:32;100795.72;;;15.59;100.00
22550;BME280;11441;57.164;-2.120;2022-09-09T09:31:12;100794.94;;;15.69;100.00
22550;BME280;11441;57.164;-2.120;2022-09-09T09:33:57;100811.06;;;15.45;100.00
22550;BME280;11441;57.164;-2.120;2022-09-09T09:36:51;100811.53;;;15.55;100.00
22550;BME280;11441;57.164;-2.120;2022-09-09T09:39:28;100797.16;;;15.38;100.00
22550;BME280;11441;57.164;-2.120;2022-09-09T09:42:17;100815.84;;;15.45;100.00
22550;BME280;11441;57.164;-2.120;2022-09-09T09:44:50;100820.56;;;15.44;100.00
22550;BME280;11441;57.164;-2.120;2022-09-09T09:47:21;100819.31;;;15.35;100.00
22550;BME280;11441;57.164;-2.120;2022-09-09T09:49:58;100832.34;;;15.27;100.00
22550;BME280;11441;57.164;-2.120;2022-09-09T09:52:31;100829.63;;;15.38;100.00
22550;BME280;11441;57.164;-2.120;2022-09-09T09:55:04;100830.06;;;15.36;100.00
22550;BME280;11441;57.164;-2.120;2022-09-09T09:57:34;100825.75;;;15.46;100.00
22550;BME280;11441;57.164;-2.120;2022-09-09T10:03:35;100828.56;;;15.53;100.00
22550;BME280;11441;57.164;-2.120;2022-09-09T10:06:06;100840.47;;;15.50;100.00
22550;BME280;11441;57.164;-2.120;2022-09-09T10:08:43;100833.06;;;15.72;100.00
22550;BME280;11441;57.164;-2.120;2022-09-09T10:14:35;100846.41;;;15.52;100.00
22550;BME280;11441;57.164;-2.120;2022-09-09T10:19:42;100848.22;;;15.78;100.00
22550;BME280;11441;57.164;-2.120;2022-09-09T10:22:28;100859.63;;;15.70;100.00
22550;BME280;11441;57.164;-2.120;2022-09-09T10:25:22;100855.66;;;15.71;100.00
22550;BME280;11441;57.164;-2.120;2022-09-09T10:28:15;100859.22;;;15.68;100.00
22550;BME280;11441;57.164;-2.120;2022-09-09T10:34:12;100853.97;;;15.55;100.00
22550;BME280;11441;57.164;-2.120;2022-09-09T10:36:47;100859.69;;;15.77;100.00
22550;BME280;11441;57.164;-2.120;2022-09-09T10:53:48;100862.25;;;15.52;100.00
22550;BME280;11441;57.164;-2.120;2022-09-09T10:56:21;100867.91;;;15.62;100.00
22550;BME280;11441;57.164;-2.120;2022-09-09T10:59:14;100880.91;;;15.51;100.00
22550;BME280;11441;57.164;-2.120;2022-09-09T11:01:47;100877.47;;;15.69;100.00
22550;BME280;11441;57.164;-2.120;2022-09-09T11:04:22;100875.53;;;15.73;100.00
22550;BME280;11441;57.164;-2.120;2022-09-09T11:06:54;100862.47;;;15.77;100.00
22550;BME280;11441;57.164;-2.120;2022-09-09T11:09:24;100881.97;;;15.84;100.00
22550;BME280;11441;57.164;-2.120;2022-09-09T11:11:55;100889.13;;;15.85;100.00
22550;BME280;11441;57.164;-2.120;2022-09-09T11:17:18;100874.06;;;15.93;100.00
22550;BME280;11441;57.164;-2.120;2022-09-09T11:20:06;100874.00;;;15.79;100.00
22550;BME280;11441;57.164;-2.120;2022-09-09T11:22:44;100885.44;;;15.74;100.00
22550;BME280;11441;57.164;-2.120;2022-09-09T11:25:29;100887.09;;;15.78;100.00
22550;BME280;11441;57.164;-2.120;2022-09-09T11:41:48;100897.47;;;15.89;100.00
22550;BME280;11441;57.164;-2.120;2022-09-09T11:44:29;100900.00;;;16.12;100.00
22550;BME280;11441;57.164;-2.120;2022-09-09T11:46:56;100907.09;;;16.09;100.00
22550;BME280;11441;57.164;-2.120;2022-09-09T11:50:27;100911.09;;;16.12;100.00
22550;BME280;11441;57.164;-2.120;2022-09-09T11:55:41;100917.34;;;15.94;100.00
22550;BME280;11441;57.164;-2.120;2022-09-09T12:00:57;100928.63;;;16.23;100.00
22550;BME280;11441;57.164;-2.120;2022-09-09T12:03:34;100911.47;;;16.07;100.00
22550;BME280;11441;57.164;-2.120;2022-09-09T12:06:42;100917.81;;;16.11;100.00
22550;BME280;11441;57.164;-2.120;2022-09-09T12:09:27;100915.50;;;16.16;100.00
22550;BME280;11441;57.164;-2.120;2022-09-09T12:17:31;100920.69;;;16.21;100.00
22550;BME280;11441;57.164;-2.120;2022-09-09T12:31:25;100920.03;;;15.80;100.00
22550;BME280;11441;57.164;-2.120;2022-09-09T12:34:04;100931.19;;;15.91;100.00
22550;BME280;11441;57.164;-2.120;2022-09-09T12:36:58;100929.25;;;15.98;100.00
22550;BME280;11441;57.164;-2.120;2022-09-09T12:39:40;100920.97;;;16.06;100.00
22550;BME280;11441;57.164;-2.120;2022-09-09T12:42:22;100920.94;;;16.02;100.00
22550;BME280;11441;57.164;-2.120;2022-09-09T12:44:56;100925.75;;;16.09;100.00
22550;BME280;11441;57.164;-2.120;2022-09-09T12:49:57;100934.63;;;16.32;100.00
22550;BME280;11441;57.164;-2.120;2022-09-09T12:52:29;100933.81;;;16.32;100.00
22550;BME280;11441;57.164;-2.120;2022-09-09T12:54:59;100938.06;;;16.08;100.00
22550;BME280;11441;57.164;-2.120;2022-09-09T12:57:36;100932.09;;;16.06;100.00
22550;BME280;11441;57.164;-2.120;2022-09-09T13:02:58;100942.56;;;16.27;100.00
22550;BME280;11441;57.164;-2.120;2022-09-09T13:05:27;100935.28;;;16.08;100.00
22550;BME280;11441;57.164;-2.120;2022-09-09T13:08:05;100936.16;;;16.19;100.00
22550;BME280;11441;57.164;-2.120;2022-09-09T13:13:27;100945.38;;;16.34;100.00
22550;BME280;11441;57.164;-2.120;2022-09-09T13:15:58;100944.06;;;16.17;100.00
22550;BME280;11441;57.164;-2.120;2022-09-09T13:18:31;100932.97;;;16.17;100.00
22550;BME280;11441;57.164;-2.120;2022-09-09T13:21:00;100949.72;;;16.31;100.00
22550;BME280;11441;57.164;-2.120;2022-09-09T13:23:30;100942.91;;;16.21;100.00
22550;BME280;11441;57.164;-2.120;2022-09-09T13:25:59;100941.25;;;16.10;100.00
22550;BME280;11441;57.164;-2.120;2022-09-09T13:28:29;100948.97;;;16.38;100.00
22550;BME280;11441;57.164;-2.120;2022-09-09T13:31:05;100950.94;;;16.34;100.00
22550;BME280;11441;57.164;-2.120;2022-09-09T13:33:37;100950.38;;;16.10;100.00
22550;BME280;11441;57.164;-2.120;2022-09-09T13:36:11;100954.41;;;16.20;100.00
22550;BME280;11441;57.164;-2.120;2022-09-09T13:39:02;100954.06;;;16.25;100.00
22550;BME280;11441;57.164;-2.120;2022-09-09T13:43:59;100952.84;;;16.26;100.00
22550;BME280;11441;57.164;-2.120;2022-09-09T13:46:35;100958.38;;;16.19;100.00
22550;BME280;11441;57.164;-2.120;2022-09-09T13:49:22;100960.72;;;16.13;100.00
22550;BME280;11441;57.164;-2.120;2022-09-09T13:51:50;100964.19;;;15.99;100.00
22550;BME280;11441;57.164;-2.120;2022-09-09T13:54:20;100965.19;;;16.29;100.00
22550;BME280;11441;57.164;-2.120;2022-09-09T13:56:47;100953.19;;;16.17;100.00
22550;BME280;11441;57.164;-2.120;2022-09-09T13:59:18;100967.03;;;16.10;100.00
22550;BME280;11441;57.164;-2.120;2022-09-09T14:01:48;100959.97;;;16.16;100.00
22550;BME280;11441;57.164;-2.120;2022-09-09T14:04:19;100961.47;;;16.07;100.00
22550;BME280;11441;57.164;-2.120;2022-09-09T14:06:48;100955.81;;;15.92;100.00
22550;BME280;11441;57.164;-2.120;2022-09-09T14:09:17;100970.53;;;16.00;100.00
22550;BME280;11441;57.164;-2.120;2022-09-09T14:11:46;100960.59;;;15.95;100.00
22550;BME280;11441;57.164;-2.120;2022-09-09T14:14:13;100950.34;;;16.07;100.00
22550;BME280;11441;57.164;-2.120;2022-09-09T14:16:40;100955.88;;;15.99;100.00
22550;BME280;11441;57.164;-2.120;2022-09-09T14:19:08;100952.63;;;15.90;100.00
22550;BME280;11441;57.164;-2.120;2022-09-09T14:21:35;100955.59;;;16.19;100.00
22550;BME280;11441;57.164;-2.120;2022-09-09T14:24:02;100948.00;;;16.12;100.00
22550;BME280;11441;57.164;-2.120;2022-09-09T14:26:29;100959.13;;;16.16;100.00
22550;BME280;11441;57.164;-2.120;2022-09-09T14:28:56;100948.00;;;16.12;100.00
22550;BME280;11441;57.164;-2.120;2022-09-09T14:31:43;100948.38;;;16.07;100.00
22550;BME280;11441;57.164;-2.120;2022-09-09T14:34:10;100950.25;;;15.89;100.00
22550;BME280;11441;57.164;-2.120;2022-09-09T14:36:55;100960.28;;;16.08;100.00
22550;BME280;11441;57.164;-2.120;2022-09-09T14:39:22;100951.53;;;16.06;100.00
22550;BME280;11441;57.164;-2.120;2022-09-09T14:41:49;100955.16;;;16.10;100.00
22550;BME280;11441;57.164;-2.120;2022-09-09T14:44:15;100952.78;;;16.15;100.00
22550;BME280;11441;57.164;-2.120;2022-09-09T14:46:42;100956.34;;;16.12;100.00
22550;BME280;11441;57.164;-2.120;2022-09-09T14:49:09;100955.28;;;16.31;100.00
22550;BME280;11441;57.164;-2.120;2022-09-09T14:51:39;100946.84;;;16.17;100.00
22550;BME280;11441;57.164;-2.120;2022-09-09T14:54:06;100955.91;;;16.07;100.00
22550;BME280;11441;57.164;-2.120;2022-09-09T14:56:34;100943.25;;;16.13;100.00
22550;BME280;11441;57.164;-2.120;2022-09-09T14:59:19;100956.44;;;16.27;100.00
22550;BME280;11441;57.164;-2.120;2022-09-09T15:01:46;100963.53;;;16.20;100.00
22550;BME280;11441;57.164;-2.120;2022-09-09T15:04:13;100969.47;;;16.19;100.00
22550;BME280;11441;57.164;-2.120;2022-09-09T15:06:41;100947.53;;;15.99;100.00
22550;BME280;11441;57.164;-2.120;2022-09-09T15:09:10;100964.22;;;16.03;100.00
22550;BME280;11441;57.164;-2.120;2022-09-09T15:11:37;100963.44;;;16.02;100.00
22550;BME280;11441;57.164;-2.120;2022-09-09T15:14:07;100964.28;;;16.10;100.00
22550;BME280;11441;57.164;-2.120;2022-09-09T15:16:34;100952.78;;;16.15;100.00
22550;BME280;11441;57.164;-2.120;2022-09-09T15:19:02;100955.19;;;16.17;100.00
22550;BME280;11441;57.164;-2.120;2022-09-09T15:21:32;100953.00;;;15.89;100.00